Terminal Aerodrome Forecast
Issued by NWS State College, PA

Current Version | Previous Version | Text Only | Print | Product List | Glossary On
Versions: 1 2 3 4 5 6 7 8 9 10 11 12 13 14 15 16 17 18 19 20 21 22 23 24 25 26 27 28 29 30 31 32 33
000
FTUS41 KCTP 152338
TAFMDT
TAF
KMDT 152338Z 1600/1624 24005KT P6SM BKN015 OVC080
     FM160200 27008KT P6SM SCT025 OVC050
     FM160400 29007KT P6SM BKN050
     FM161500 28010G17KT P6SM BKN100=

USA.gov is the U.S. government's official web portal to all federal, state and local government web resources and services.